sensor_id;sensor_type;location;lat;lon;timestamp;pressure;altitude;pressure_sealevel;temperature;humidity
54556;BME280;57291;37.520;15.106;2023-07-13T00:00:25;101419.78;;;26.18;89.12
54556;BME280;57291;37.520;15.106;2023-07-13T00:02:53;101411.41;;;26.14;89.49
54556;BME280;57291;37.520;15.106;2023-07-13T00:05:21;101406.56;;;26.08;88.59
54556;BME280;57291;37.520;15.106;2023-07-13T00:07:51;101402.97;;;26.04;88.65
54556;BME280;57291;37.520;15.106;2023-07-13T00:10:19;101402.13;;;26.00;88.53
54556;BME280;57291;37.520;15.106;2023-07-13T00:12:46;101396.91;;;25.94;88.80
54556;BME280;57291;37.520;15.106;2023-07-13T00:15:17;101404.84;;;25.92;89.84
54556;BME280;57291;37.520;15.106;2023-07-13T00:17:50;101398.88;;;25.90;92.26
54556;BME280;57291;37.520;15.106;2023-07-13T00:20:18;101394.47;;;25.89;93.88
54556;BME280;57291;37.520;15.106;2023-07-13T00:22:49;101392.44;;;25.86;93.49
54556;BME280;57291;37.520;15.106;2023-07-13T00:25:16;101396.44;;;25.85;93.26
54556;BME280;57291;37.520;15.106;2023-07-13T00:27:44;101384.47;;;25.81;90.28
54556;BME280;57291;37.520;15.106;2023-07-13T00:30:12;101384.41;;;25.78;88.46
54556;BME280;57291;37.520;15.106;2023-07-13T00:32:39;101387.25;;;25.81;92.49
54556;BME280;57291;37.520;15.106;2023-07-13T00:35:07;101388.75;;;25.75;89.20
54556;BME280;57291;37.520;15.106;2023-07-13T00:37:34;101385.91;;;25.68;86.14
54556;BME280;57291;37.520;15.106;2023-07-13T00:40:03;101386.66;;;25.65;84.44
54556;BME280;57291;37.520;15.106;2023-07-13T00:42:32;101390.63;;;25.64;84.08
54556;BME280;57291;37.520;15.106;2023-07-13T00:47:47;101388.63;;;25.61;82.05
54556;BME280;57291;37.520;15.106;2023-07-13T00:50:16;101391.41;;;25.61;83.24
54556;BME280;57291;37.520;15.106;2023-07-13T00:52:48;101390.19;;;25.62;83.56
54556;BME280;57291;37.520;15.106;2023-07-13T00:55:17;101376.28;;;25.62;83.41
54556;BME280;57291;37.520;15.106;2023-07-13T00:57:44;101377.06;;;25.59;81.97
54556;BME280;57291;37.520;15.106;2023-07-13T01:00:13;101370.72;;;25.62;82.44
54556;BME280;57291;37.520;15.106;2023-07-13T01:02:42;101370.25;;;25.56;82.22
54556;BME280;57291;37.520;15.106;2023-07-13T01:05:17;101370.25;;;25.56;82.26
54556;BME280;57291;37.520;15.106;2023-07-13T01:07:46;101365.47;;;25.53;82.92
54556;BME280;57291;37.520;15.106;2023-07-13T01:10:15;101373.00;;;25.53;83.88
54556;BME280;57291;37.520;15.106;2023-07-13T01:12:42;101369.44;;;25.52;83.72
54556;BME280;57291;37.520;15.106;2023-07-13T01:15:44;101380.19;;;25.54;84.77
54556;BME280;57291;37.520;15.106;2023-07-13T01:18:19;101376.56;;;25.49;85.63
54556;BME280;57291;37.520;15.106;2023-07-13T01:23:22;101364.53;;;25.38;86.48
54556;BME280;57291;37.520;15.106;2023-07-13T01:25:49;101366.88;;;25.36;86.41
54556;BME280;57291;37.520;15.106;2023-07-13T01:28:16;101366.47;;;25.34;86.45
54556;BME280;57291;37.520;15.106;2023-07-13T01:30:45;101366.47;;;25.34;86.28
54556;BME280;57291;37.520;15.106;2023-07-13T01:33:15;101368.41;;;25.30;86.36
54556;BME280;57291;37.520;15.106;2023-07-13T01:35:46;101374.72;;;25.27;87.31
54556;BME280;57291;37.520;15.106;2023-07-13T01:38:17;101359.97;;;25.23;88.02
54556;BME280;57291;37.520;15.106;2023-07-13T01:40:45;101361.16;;;25.22;88.37
54556;BME280;57291;37.520;15.106;2023-07-13T01:43:13;101359.56;;;25.21;88.39
54556;BME280;57291;37.520;15.106;2023-07-13T01:45:40;101350.41;;;25.20;88.60
54556;BME280;57291;37.520;15.106;2023-07-13T01:48:10;101360.34;;;25.18;88.38
54556;BME280;57291;37.520;15.106;2023-07-13T01:50:38;101359.47;;;25.14;88.63
54556;BME280;57291;37.520;15.106;2023-07-13T01:53:07;101365.91;;;25.18;89.11
54556;BME280;57291;37.520;15.106;2023-07-13T01:55:35;101350.78;;;25.19;88.76
54556;BME280;57291;37.520;15.106;2023-07-13T01:58:02;101357.13;;;25.16;88.77
54556;BME280;57291;37.520;15.106;2023-07-13T02:00:30;101358.97;;;25.04;89.50
54556;BME280;57291;37.520;15.106;2023-07-13T02:02:58;101349.34;;;24.98;89.58
54556;BME280;57291;37.520;15.106;2023-07-13T02:05:25;101350.13;;;24.99;90.05
54556;BME280;57291;37.520;15.106;2023-07-13T02:07:52;101350.09;;;24.95;89.99
54556;BME280;57291;37.520;15.106;2023-07-13T02:10:19;101353.25;;;24.94;90.66
54556;BME280;57291;37.520;15.106;2023-07-13T02:12:48;101358.09;;;25.00;90.75
54556;BME280;57291;37.520;15.106;2023-07-13T02:15:16;101350.19;;;25.02;91.07
54556;BME280;57291;37.520;15.106;2023-07-13T02:17:44;101346.16;;;25.00;91.05
54556;BME280;57291;37.520;15.106;2023-07-13T02:20:12;101355.31;;;25.00;91.02
54556;BME280;57291;37.520;15.106;2023-07-13T02:22:39;101344.91;;;24.94;89.80
54556;BME280;57291;37.520;15.106;2023-07-13T02:25:06;101347.63;;;24.90;88.69
54556;BME280;57291;37.520;15.106;2023-07-13T02:27:33;101346.03;;;24.89;88.59
54556;BME280;57291;37.520;15.106;2023-07-13T02:30:01;101342.06;;;24.90;88.27
54556;BME280;57291;37.520;15.106;2023-07-13T02:32:28;101344.53;;;24.95;87.66
54556;BME280;57291;37.520;15.106;2023-07-13T02:34:55;101348.91;;;24.96;86.46
54556;BME280;57291;37.520;15.106;2023-07-13T02:37:22;101350.56;;;25.01;85.73
54556;BME280;57291;37.520;15.106;2023-07-13T02:39:50;101352.56;;;25.04;84.70
54556;BME280;57291;37.520;15.106;2023-07-13T02:42:17;101360.53;;;25.06;84.19
54556;BME280;57291;37.520;15.106;2023-07-13T02:44:44;101354.19;;;25.05;83.79
54556;BME280;57291;37.520;15.106;2023-07-13T02:47:11;101357.75;;;25.06;82.98
54556;BME280;57291;37.520;15.106;2023-07-13T02:49:39;101362.09;;;25.03;82.93
54556;BME280;57291;37.520;15.106;2023-07-13T02:52:07;101368.44;;;25.03;82.45
54556;BME280;57291;37.520;15.106;2023-07-13T02:54:34;101372.84;;;25.04;82.24
54556;BME280;57291;37.520;15.106;2023-07-13T02:57:01;101374.44;;;25.06;82.28
54556;BME280;57291;37.520;15.106;2023-07-13T02:59:28;101371.66;;;25.06;81.65
54556;BME280;57291;37.520;15.106;2023-07-13T03:01:55;101374.06;;;25.07;81.59
54556;BME280;57291;37.520;15.106;2023-07-13T03:04:23;101368.13;;;25.09;81.42
54556;BME280;57291;37.520;15.106;2023-07-13T03:06:50;101377.28;;;25.09;81.69
54556;BME280;57291;37.520;15.106;2023-07-13T03:09:18;101374.50;;;25.09;81.18
54556;BME280;57291;37.520;15.106;2023-07-13T03:11:54;101376.53;;;25.12;81.42
54556;BME280;57291;37.520;15.106;2023-07-13T03:14:28;101378.94;;;25.14;81.65
54556;BME280;57291;37.520;15.106;2023-07-13T03:16:55;101377.78;;;25.15;81.00
54556;BME280;57291;37.520;15.106;2023-07-13T03:19:26;101374.56;;;25.13;80.92
54556;BME280;57291;37.520;15.106;2023-07-13T03:21:54;101375.00;;;25.15;81.33
54556;BME280;57291;37.520;15.106;2023-07-13T03:24:21;101379.00;;;25.17;81.34
54556;BME280;57291;37.520;15.106;2023-07-13T03:26:51;101381.38;;;25.19;80.54
54556;BME280;57291;37.520;15.106;2023-07-13T03:29:18;101377.41;;;25.20;80.69
54556;BME280;57291;37.520;15.106;2023-07-13T03:31:45;101383.78;;;25.20;80.48
54556;BME280;57291;37.520;15.106;2023-07-13T03:34:13;101370.66;;;25.17;80.06
54556;BME280;57291;37.520;15.106;2023-07-13T03:36:41;101365.50;;;25.19;80.23
54556;BME280;57291;37.520;15.106;2023-07-13T03:39:10;101367.50;;;25.19;80.17
54556;BME280;57291;37.520;15.106;2023-07-13T03:41:47;101364.31;;;25.20;79.70
54556;BME280;57291;37.520;15.106;2023-07-13T03:44:18;101370.69;;;25.21;79.69
54556;BME280;57291;37.520;15.106;2023-07-13T03:46:50;101369.50;;;25.22;78.73
54556;BME280;57291;37.520;15.106;2023-07-13T03:49:17;101364.38;;;25.24;78.09
54556;BME280;57291;37.520;15.106;2023-07-13T03:51:44;101372.28;;;25.22;78.00
54556;BME280;57291;37.520;15.106;2023-07-13T03:54:11;101370.28;;;25.19;78.33
54556;BME280;57291;37.520;15.106;2023-07-13T03:56:39;101363.50;;;25.20;79.02
54556;BME280;57291;37.520;15.106;2023-07-13T03:59:08;101359.19;;;25.22;78.81
54556;BME280;57291;37.520;15.106;2023-07-13T04:01:35;101369.06;;;25.20;77.46
54556;BME280;57291;37.520;15.106;2023-07-13T04:04:02;101373.47;;;25.21;77.44
54556;BME280;57291;37.520;15.106;2023-07-13T04:06:32;101375.88;;;25.22;78.44
54556;BME280;57291;37.520;15.106;2023-07-13T04:09:00;101375.50;;;25.24;79.58
54556;BME280;57291;37.520;15.106;2023-07-13T04:11:30;101380.28;;;25.27;79.76
54556;BME280;57291;37.520;15.106;2023-07-13T04:13:59;101371.56;;;25.29;79.47
54556;BME280;57291;37.520;15.106;2023-07-13T04:16:26;101389.06;;;25.29;78.61
54556;BME280;57291;37.520;15.106;2023-07-13T04:18:55;101383.50;;;25.29;77.20
54556;BME280;57291;37.520;15.106;2023-07-13T04:21:27;101385.94;;;25.34;77.11
54556;BME280;57291;37.520;15.106;2023-07-13T04:23:55;101383.56;;;25.36;76.93
54556;BME280;57291;37.520;15.106;2023-07-13T04:26:22;101391.59;;;25.41;76.79
54556;BME280;57291;37.520;15.106;2023-07-13T04:28:50;101382.09;;;25.46;76.14
54556;BME280;57291;37.520;15.106;2023-07-13T04:31:19;101388.88;;;25.48;75.16
54556;BME280;57291;37.520;15.106;2023-07-13T04:33:47;101389.72;;;25.53;75.25
54556;BME280;57291;37.520;15.106;2023-07-13T04:36:16;101394.19;;;25.61;75.15
54556;BME280;57291;37.520;15.106;2023-07-13T04:38:43;101394.69;;;25.70;75.19
54556;BME280;57291;37.520;15.106;2023-07-13T04:41:11;101385.97;;;25.75;73.89
54556;BME280;57291;37.520;15.106;2023-07-13T04:43:39;101394.00;;;25.80;71.21
54556;BME280;57291;37.520;15.106;2023-07-13T04:46:14;101399.19;;;25.82;69.98
54556;BME280;57291;37.520;15.106;2023-07-13T04:48:43;101398.41;;;25.85;70.19
54556;BME280;57291;37.520;15.106;2023-07-13T04:51:10;101400.50;;;25.95;75.71
54556;BME280;57291;37.520;15.106;2023-07-13T04:53:38;101409.31;;;26.01;78.63
54556;BME280;57291;37.520;15.106;2023-07-13T04:56:05;101402.91;;;25.96;79.91
54556;BME280;57291;37.520;15.106;2023-07-13T04:58:33;101400.91;;;25.97;80.75
54556;BME280;57291;37.520;15.106;2023-07-13T05:01:05;101402.88;;;25.93;80.30
54556;BME280;57291;37.520;15.106;2023-07-13T05:03:33;101408.00;;;25.87;80.04
54556;BME280;57291;37.520;15.106;2023-07-13T05:06:04;101412.34;;;25.85;80.25
54556;BME280;57291;37.520;15.106;2023-07-13T05:08:31;101406.59;;;25.70;81.10
54556;BME280;57291;37.520;15.106;2023-07-13T05:11:02;101410.72;;;25.80;80.54
54556;BME280;57291;37.520;15.106;2023-07-13T05:13:30;101416.00;;;25.96;80.16
54556;BME280;57291;37.520;15.106;2023-07-13T05:15:59;101422.84;;;26.06;79.33
54556;BME280;57291;37.520;15.106;2023-07-13T05:18:28;101422.13;;;26.12;77.52
54556;BME280;57291;37.520;15.106;2023-07-13T05:21:00;101421.25;;;26.05;77.20
54556;BME280;57291;37.520;15.106;2023-07-13T05:23:28;101429.31;;;26.13;76.81
54556;BME280;57291;37.520;15.106;2023-07-13T05:25:56;101429.34;;;26.17;77.40
54556;BME280;57291;37.520;15.106;2023-07-13T05:28:24;101427.78;;;26.23;76.33
54556;BME280;57291;37.520;15.106;2023-07-13T05:30:51;101435.00;;;26.31;75.72
54556;BME280;57291;37.520;15.106;2023-07-13T05:33:19;101437.97;;;26.49;75.40
54556;BME280;57291;37.520;15.106;2023-07-13T05:35:46;101439.31;;;26.70;73.98
54556;BME280;57291;37.520;15.106;2023-07-13T05:38:14;101438.31;;;27.10;73.34
54556;BME280;57291;37.520;15.106;2023-07-13T05:40:45;101439.72;;;27.55;73.10
54556;BME280;57291;37.520;15.106;2023-07-13T05:43:13;101450.97;;;27.77;71.28
54556;BME280;57291;37.520;15.106;2023-07-13T05:45:41;101458.19;;;27.92;69.85
54556;BME280;57291;37.520;15.106;2023-07-13T05:48:08;101455.38;;;28.03;69.69
54556;BME280;57291;37.520;15.106;2023-07-13T05:50:35;101456.59;;;27.95;69.97
54556;BME280;57291;37.520;15.106;2023-07-13T05:53:03;101459.81;;;28.08;69.03
54556;BME280;57291;37.520;15.106;2023-07-13T05:55:30;101459.38;;;28.09;69.20
54556;BME280;57291;37.520;15.106;2023-07-13T05:57:59;101460.59;;;28.12;69.56
54556;BME280;57291;37.520;15.106;2023-07-13T06:00:26;101453.44;;;28.50;67.88
54556;BME280;57291;37.520;15.106;2023-07-13T06:02:55;101456.50;;;29.16;66.20
54556;BME280;57291;37.520;15.106;2023-07-13T06:05:22;101467.31;;;29.95;63.77
54556;BME280;57291;37.520;15.106;2023-07-13T06:07:50;101467.06;;;30.72;61.78
54556;BME280;57291;37.520;15.106;2023-07-13T06:10:17;101473.19;;;31.39;60.36
54556;BME280;57291;37.520;15.106;2023-07-13T06:12:44;101471.94;;;31.71;59.18
54556;BME280;57291;37.520;15.106;2023-07-13T06:15:11;101474.16;;;31.83;58.96
54556;BME280;57291;37.520;15.106;2023-07-13T06:17:39;101471.94;;;31.71;57.42
54556;BME280;57291;37.520;15.106;2023-07-13T06:20:06;101471.75;;;31.54;58.21
54556;BME280;57291;37.520;15.106;2023-07-13T06:22:34;101466.44;;;31.33;57.45
54556;BME280;57291;37.520;15.106;2023-07-13T06:25:01;101469.63;;;31.62;57.36
54556;BME280;57291;37.520;15.106;2023-07-13T06:27:28;101466.47;;;31.60;56.63
54556;BME280;57291;37.520;15.106;2023-07-13T06:29:56;101463.94;;;31.69;56.99
54556;BME280;57291;37.520;15.106;2023-07-13T06:32:24;101466.25;;;31.74;57.77
54556;BME280;57291;37.520;15.106;2023-07-13T06:34:51;101464.72;;;31.70;57.93
54556;BME280;57291;37.520;15.106;2023-07-13T06:37:21;101461.47;;;31.44;58.60
54556;BME280;57291;37.520;15.106;2023-07-13T06:39:48;101462.91;;;31.56;57.31
54556;BME280;57291;37.520;15.106;2023-07-13T06:42:16;101464.91;;;31.56;56.74
54556;BME280;57291;37.520;15.106;2023-07-13T06:44:44;101467.31;;;31.57;56.40
54556;BME280;57291;37.520;15.106;2023-07-13T06:47:11;101462.19;;;31.48;56.17
54556;BME280;57291;37.520;15.106;2023-07-13T06:49:39;101465.69;;;31.60;57.32
54556;BME280;57291;37.520;15.106;2023-07-13T06:52:06;101467.78;;;31.52;58.25
54556;BME280;57291;37.520;15.106;2023-07-13T06:54:33;101467.31;;;31.57;58.36
54556;BME280;57291;37.520;15.106;2023-07-13T06:57:02;101462.84;;;31.90;58.30
54556;BME280;57291;37.520;15.106;2023-07-13T06:59:29;101452.59;;;31.76;59.02
54556;BME280;57291;37.520;15.106;2023-07-13T07:01:56;101455.19;;;31.64;60.21
54556;BME280;57291;37.520;15.106;2023-07-13T07:04:23;101459.72;;;31.54;60.51
54556;BME280;57291;37.520;15.106;2023-07-13T07:06:51;101459.63;;;31.30;61.17
54556;BME280;57291;37.520;15.106;2023-07-13T07:09:18;101464.06;;;31.28;62.22
54556;BME280;57291;37.520;15.106;2023-07-13T07:11:45;101469.28;;;31.26;62.22
54556;BME280;57291;37.520;15.106;2023-07-13T07:14:28;101467.00;;;31.17;62.92
54556;BME280;57291;37.520;15.106;2023-07-13T07:16:55;101466.56;;;31.19;63.32
54556;BME280;57291;37.520;15.106;2023-07-13T07:19:22;101459.25;;;30.94;64.07
54556;BME280;57291;37.520;15.106;2023-07-13T07:21:49;101462.25;;;30.73;65.71
54556;BME280;57291;37.520;15.106;2023-07-13T07:24:16;101456.09;;;30.89;66.64
54556;BME280;57291;37.520;15.106;2023-07-13T07:26:43;101454.09;;;30.89;66.23
54556;BME280;57291;37.520;15.106;2023-07-13T07:29:14;101457.50;;;31.07;65.91
54556;BME280;57291;37.520;15.106;2023-07-13T07:31:43;101453.56;;;31.01;67.11
54556;BME280;57291;37.520;15.106;2023-07-13T07:34:14;101458.25;;;31.12;66.42
54556;BME280;57291;37.520;15.106;2023-07-13T07:36:41;101458.47;;;30.94;67.43
54556;BME280;57291;37.520;15.106;2023-07-13T07:39:11;101457.03;;;30.75;68.83
54556;BME280;57291;37.520;15.106;2023-07-13T07:41:38;101452.72;;;30.22;70.42
54556;BME280;57291;37.520;15.106;2023-07-13T07:44:08;101453.88;;;30.28;71.10
54556;BME280;57291;37.520;15.106;2023-07-13T07:46:37;101460.28;;;30.28;71.88
54556;BME280;57291;37.520;15.106;2023-07-13T07:49:04;101451.94;;;30.18;72.50
54556;BME280;57291;37.520;15.106;2023-07-13T07:51:31;101452.31;;;30.20;71.29
54556;BME280;57291;37.520;15.106;2023-07-13T07:53:58;101457.94;;;30.16;72.17
54556;BME280;57291;37.520;15.106;2023-07-13T07:56:26;101451.69;;;29.94;71.87
54556;BME280;57291;37.520;15.106;2023-07-13T07:58:56;101456.09;;;29.95;72.27
54556;BME280;57291;37.520;15.106;2023-07-13T08:01:26;101457.78;;;29.85;72.19
54556;BME280;57291;37.520;15.106;2023-07-13T08:03:56;101462.53;;;29.92;73.10
54556;BME280;57291;37.520;15.106;2023-07-13T08:06:26;101467.31;;;29.95;73.87
54556;BME280;57291;37.520;15.106;2023-07-13T08:09:11;101453.09;;;30.24;71.40
54556;BME280;57291;37.520;15.106;2023-07-13T08:11:38;101462.28;;;30.28;71.45
54556;BME280;57291;37.520;15.106;2023-07-13T08:14:08;101461.53;;;30.65;70.50
54556;BME280;57291;37.520;15.106;2023-07-13T08:16:36;101445.13;;;30.64;69.27
54556;BME280;57291;37.520;15.106;2023-07-13T08:19:03;101448.38;;;30.58;69.76
54556;BME280;57291;37.520;15.106;2023-07-13T08:21:31;101455.00;;;30.37;69.29
54556;BME280;57291;37.520;15.106;2023-07-13T08:23:58;101455.44;;;30.32;69.57
54556;BME280;57291;37.520;15.106;2023-07-13T08:26:25;101450.16;;;30.42;70.79
54556;BME280;57291;37.520;15.106;2023-07-13T08:28:52;101449.75;;;30.40;71.34
54556;BME280;57291;37.520;15.106;2023-07-13T08:31:19;101452.47;;;30.47;70.21
54556;BME280;57291;37.520;15.106;2023-07-13T08:33:46;101452.00;;;30.55;70.16
54556;BME280;57291;37.520;15.106;2023-07-13T08:36:13;101450.53;;;30.85;70.03
54556;BME280;57291;37.520;15.106;2023-07-13T08:38:40;101450.63;;;30.74;69.11
54556;BME280;57291;37.520;15.106;2023-07-13T08:41:16;101447.72;;;30.85;68.82
54556;BME280;57291;37.520;15.106;2023-07-13T08:43:48;101446.59;;;30.79;67.86
54556;BME280;57291;37.520;15.106;2023-07-13T08:46:33;101459.81;;;31.16;67.90
54556;BME280;57291;37.520;15.106;2023-07-13T08:49:05;101448.78;;;30.98;66.11
54556;BME280;57291;37.520;15.106;2023-07-13T08:51:51;101440.19;;;30.75;67.47
54556;BME280;57291;37.520;15.106;2023-07-13T08:54:36;101443.25;;;30.50;67.99
54556;BME280;57291;37.520;15.106;2023-07-13T08:57:12;101459.03;;;30.33;67.88
54556;BME280;57291;37.520;15.106;2023-07-13T08:59:40;101447.97;;;30.11;66.79
54556;BME280;57291;37.520;15.106;2023-07-13T09:05:01;101445.63;;;30.03;68.96
54556;BME280;57291;37.520;15.106;2023-07-13T09:10:49;101451.25;;;29.99;69.94
54556;BME280;57291;37.520;15.106;2023-07-13T09:16:49;101453.84;;;30.31;69.28
54556;BME280;57291;37.520;15.106;2023-07-13T09:19:23;101443.34;;;30.39;69.41
54556;BME280;57291;37.520;15.106;2023-07-13T09:21:54;101449.00;;;29.80;70.90
54556;BME280;57291;37.520;15.106;2023-07-13T09:24:37;101448.34;;;29.47;72.62
54556;BME280;57291;37.520;15.106;2023-07-13T09:27:18;101455.59;;;29.37;72.69
54556;BME280;57291;37.520;15.106;2023-07-13T09:29:54;101450.00;;;29.37;72.76
54556;BME280;57291;37.520;15.106;2023-07-13T09:32:24;101454.09;;;29.22;71.98
54556;BME280;57291;37.520;15.106;2023-07-13T09:34:54;101449.19;;;29.40;73.76
54556;BME280;57291;37.520;15.106;2023-07-13T09:37:27;101445.84;;;29.71;72.42
54556;BME280;57291;37.520;15.106;2023-07-13T09:39:56;101455.78;;;29.82;71.93
54556;BME280;57291;37.520;15.106;2023-07-13T09:42:25;101448.84;;;30.01;70.04
54556;BME280;57291;37.520;15.106;2023-07-13T09:45:01;101452.50;;;29.95;70.09
54556;BME280;57291;37.520;15.106;2023-07-13T09:47:39;101443.56;;;29.48;71.90
54556;BME280;57291;37.520;15.106;2023-07-13T09:50:14;101462.34;;;29.51;71.96
54556;BME280;57291;37.520;15.106;2023-07-13T09:52:44;101453.94;;;29.51;71.94
54556;BME280;57291;37.520;15.106;2023-07-13T09:55:37;101440.31;;;29.56;71.46
54556;BME280;57291;37.520;15.106;2023-07-13T09:58:12;101444.63;;;29.75;66.79
54556;BME280;57291;37.520;15.106;2023-07-13T10:00:40;101441.69;;;29.93;65.11
54556;BME280;57291;37.520;15.106;2023-07-13T10:03:19;101445.88;;;30.26;61.89
54556;BME280;57291;37.520;15.106;2023-07-13T10:05:52;101438.50;;;30.43;57.94
54556;BME280;57291;37.520;15.106;2023-07-13T10:08:22;101439.53;;;30.64;55.91
54556;BME280;57291;37.520;15.106;2023-07-13T10:13:43;101426.53;;;30.39;54.62
54556;BME280;57291;37.520;15.106;2023-07-13T10:16:12;101431.22;;;30.49;56.81
54556;BME280;57291;37.520;15.106;2023-07-13T10:18:44;101428.31;;;30.60;61.45
54556;BME280;57291;37.520;15.106;2023-07-13T10:21:18;101431.38;;;30.35;62.59
54556;BME280;57291;37.520;15.106;2023-07-13T10:24:33;101426.25;;;30.26;62.27
54556;BME280;57291;37.520;15.106;2023-07-13T10:27:16;101431.47;;;30.24;62.38
54556;BME280;57291;37.520;15.106;2023-07-13T10:29:54;101434.72;;;30.15;63.54
54556;BME280;57291;37.520;15.106;2023-07-13T10:32:25;101430.94;;;30.36;61.32
54556;BME280;57291;37.520;15.106;2023-07-13T10:34:53;101432.97;;;30.36;61.18
54556;BME280;57291;37.520;15.106;2023-07-13T10:37:27;101428.84;;;30.48;58.99
54556;BME280;57291;37.520;15.106;2023-07-13T10:39:57;101430.13;;;30.81;61.24
54556;BME280;57291;37.520;15.106;2023-07-13T10:42:30;101420.31;;;30.58;55.73
54556;BME280;57291;37.520;15.106;2023-07-13T10:44:59;101415.75;;;30.37;58.66
54556;BME280;57291;37.520;15.106;2023-07-13T10:47:28;101416.38;;;30.52;58.70
54556;BME280;57291;37.520;15.106;2023-07-13T10:49:57;101418.19;;;30.32;58.79
54556;BME280;57291;37.520;15.106;2023-07-13T10:52:49;101426.31;;;30.15;61.77
54556;BME280;57291;37.520;15.106;2023-07-13T10:55:40;101410.75;;;30.11;62.67
54556;BME280;57291;37.520;15.106;2023-07-13T10:58:24;101413.97;;;30.06;64.05
54556;BME280;57291;37.520;15.106;2023-07-13T11:01:27;101419.50;;;30.13;64.00
54556;BME280;57291;37.520;15.106;2023-07-13T11:04:11;101416.69;;;30.17;64.85
54556;BME280;57291;37.520;15.106;2023-07-13T11:06:41;101411.06;;;30.20;64.44
54556;BME280;57291;37.520;15.106;2023-07-13T11:11:46;101405.03;;;30.63;65.27
54556;BME280;57291;37.520;15.106;2023-07-13T11:14:31;101404.69;;;30.61;65.05
54556;BME280;57291;37.520;15.106;2023-07-13T11:22:43;101405.25;;;30.45;66.52
54556;BME280;57291;37.520;15.106;2023-07-13T11:30:47;101403.50;;;30.58;63.09
54556;BME280;57291;37.520;15.106;2023-07-13T11:36:17;101401.56;;;30.90;62.64
54556;BME280;57291;37.520;15.106;2023-07-13T11:39:17;101394.56;;;31.05;57.90
54556;BME280;57291;37.520;15.106;2023-07-13T11:41:52;101389.38;;;31.03;57.28
54556;BME280;57291;37.520;15.106;2023-07-13T11:44:21;101389.81;;;31.29;58.30
54556;BME280;57291;37.520;15.106;2023-07-13T11:47:07;101391.75;;;31.39;58.23
54556;BME280;57291;37.520;15.106;2023-07-13T11:49:50;101390.63;;;31.33;57.88
54556;BME280;57291;37.520;15.106;2023-07-13T11:52:20;101381.34;;;31.36;58.78
54556;BME280;57291;37.520;15.106;2023-07-13T11:54:55;101385.00;;;31.33;60.44
54556;BME280;57291;37.520;15.106;2023-07-13T11:57:32;101385.03;;;31.29;59.70
54556;BME280;57291;37.520;15.106;2023-07-13T12:00:04;101368.88;;;31.37;61.27
54556;BME280;57291;37.520;15.106;2023-07-13T12:02:38;101381.97;;;31.47;61.56
54556;BME280;57291;37.520;15.106;2023-07-13T12:05:10;101363.38;;;31.57;61.77
54556;BME280;57291;37.520;15.106;2023-07-13T12:07:39;101364.69;;;31.49;61.26
54556;BME280;57291;37.520;15.106;2023-07-13T12:10:29;101366.28;;;31.50;60.00
54556;BME280;57291;37.520;15.106;2023-07-13T12:13:00;101362.25;;;31.51;60.72
54556;BME280;57291;37.520;15.106;2023-07-13T12:18:00;101358.34;;;31.45;60.92
54556;BME280;57291;37.520;15.106;2023-07-13T12:20:33;101359.03;;;31.52;61.17
54556;BME280;57291;37.520;15.106;2023-07-13T12:23:05;101357.31;;;31.59;61.82
54556;BME280;57291;37.520;15.106;2023-07-13T12:25:34;101360.72;;;31.73;60.56
54556;BME280;57291;37.520;15.106;2023-07-13T12:28:20;101357.88;;;32.00;60.69
54556;BME280;57291;37.520;15.106;2023-07-13T12:30:48;101355.19;;;31.93;61.80
54556;BME280;57291;37.520;15.106;2023-07-13T12:33:16;101349.03;;;31.75;61.98
54556;BME280;57291;37.520;15.106;2023-07-13T12:35:47;101340.72;;;31.68;61.74
54556;BME280;57291;37.520;15.106;2023-07-13T12:38:16;101351.63;;;31.62;61.45
54556;BME280;57291;37.520;15.106;2023-07-13T12:40:44;101347.22;;;31.88;61.89
54556;BME280;57291;37.520;15.106;2023-07-13T12:43:14;101337.34;;;32.04;60.06
54556;BME280;57291;37.520;15.106;2023-07-13T12:46:18;101330.78;;;32.10;59.42
54556;BME280;57291;37.520;15.106;2023-07-13T12:48:51;101335.03;;;31.98;57.36
54556;BME280;57291;37.520;15.106;2023-07-13T12:51:36;101338.63;;;31.99;59.43
54556;BME280;57291;37.520;15.106;2023-07-13T12:54:19;101321.88;;;31.92;59.38
54556;BME280;57291;37.520;15.106;2023-07-13T12:56:49;101325.50;;;31.92;59.67
54556;BME280;57291;37.520;15.106;2023-07-13T12:59:22;101322.69;;;31.92;58.73
54556;BME280;57291;37.520;15.106;2023-07-13T13:01:50;101327.44;;;31.95;56.44
54556;BME280;57291;37.520;15.106;2023-07-13T13:04:17;101314.25;;;31.92;56.83
54556;BME280;57291;37.520;15.106;2023-07-13T13:06:49;101306.09;;;31.98;59.35
54556;BME280;57291;37.520;15.106;2023-07-13T13:09:27;101305.00;;;31.92;56.59
54556;BME280;57291;37.520;15.106;2023-07-13T13:11:54;101316.72;;;31.87;54.51
54556;BME280;57291;37.520;15.106;2023-07-13T13:14:21;101313.34;;;31.72;56.13
54556;BME280;57291;37.520;15.106;2023-07-13T13:16:50;101314.53;;;31.74;58.23
54556;BME280;57291;37.520;15.106;2023-07-13T13:19:23;101309.28;;;31.76;56.06
54556;BME280;57291;37.520;15.106;2023-07-13T13:21:54;101307.25;;;31.77;53.72
54556;BME280;57291;37.520;15.106;2023-07-13T13:24:26;101319.59;;;31.83;54.76
54556;BME280;57291;37.520;15.106;2023-07-13T13:26:54;101317.72;;;31.76;54.56
54556;BME280;57291;37.520;15.106;2023-07-13T13:29:24;101310.53;;;31.72;54.94
54556;BME280;57291;37.520;15.106;2023-07-13T13:31:53;101309.41;;;31.69;56.28
54556;BME280;57291;37.520;15.106;2023-07-13T13:34:21;101306.88;;;31.75;53.99